Time;durP1;ratioP1;P1;durP2;ratioP2;P2;SDS_P1;SDS_P2;PMS_P1;PMS_P2;Temp;Humidity;BMP_temperature;BMP_pressure;BME280_temperature;BME280_humidity;BME280_pressure;Samples;Min_cycle;Max_cycle;Signal;HPM_P1;HPM_P2
2022/04/28 00:00:59;;;;;;;24.08;11.25;;;7.20;51.40;;;;;;5009576;28;25168;-70
2022/04/28 00:03:25;;;;;;;21.25;10.80;;;7.20;52.80;;;;;;5007906;28;25068;-71
2022/04/28 00:05:52;;;;;;;27.15;11.32;;;7.20;53.10;;;;;;5009848;28;25064;-70
2022/04/28 00:08:18;;;;;;;25.27;10.73;;;7.20;53.20;;;;;;5008836;28;25062;-69
2022/04/28 00:10:44;;;;;;;20.67;11.30;;;7.10;54.50;;;;;;5007018;28;25064;-70
2022/04/28 00:13:12;;;;;;;28.42;12.43;;;7.20;54.80;;;;;;5006792;28;25137;-70
2022/04/28 00:15:38;;;;;;;19.75;11.82;;;7.10;55.40;;;;;;5009056;28;25166;-68
2022/04/28 00:18:05;;;;;;;27.77;13.32;;;7.10;57.50;;;;;;5009762;28;25088;-71
2022/04/28 00:20:31;;;;;;;22.73;11.73;;;7.00;57.90;;;;;;5006662;28;25062;-70
2022/04/28 00:22:56;;;;;;;20.17;12.43;;;7.10;59.00;;;;;;5010526;28;25050;-70
2022/04/28 00:25:23;;;;;;;27.20;11.85;;;7.00;59.20;;;;;;5008743;28;25176;-70
2022/04/28 00:27:49;;;;;;;27.42;13.07;;;7.00;59.90;;;;;;5008545;28;25102;-70
2022/04/28 00:30:15;;;;;;;21.33;11.50;;;7.00;60.30;;;;;;5008694;28;25061;-71
2022/04/28 00:32:41;;;;;;;22.55;11.80;;;7.00;59.40;;;;;;5009052;28;25054;-69
2022/04/28 00:35:07;;;;;;;22.98;11.63;;;7.00;58.90;;;;;;5005041;28;25155;-69
2022/04/28 00:37:32;;;;;;;23.42;12.80;;;7.00;59.00;;;;;;5008627;28;25064;-71
2022/04/28 00:39:58;;;;;;;19.80;12.63;;;7.10;58.30;;;;;;5008069;28;25104;-71
2022/04/28 00:42:24;;;;;;;22.80;11.75;;;7.10;57.40;;;;;;5004717;28;25058;-70
2022/04/28 00:44:49;;;;;;;24.77;12.75;;;7.00;56.40;;;;;;5011173;28;25085;-71
2022/04/28 00:47:15;;;;;;;24.10;12.23;;;7.00;57.00;;;;;;5028470;28;25050;-72
2022/04/28 00:52:27;;;;;;;21.60;12.55;;;6.90;58.00;;;;;;5016042;28;25066;-70
2022/04/28 00:54:53;;;;;;;24.40;11.40;;;7.00;58.10;;;;;;5006329;28;24633;-70
2022/04/28 00:57:20;;;;;;;24.90;13.02;;;7.00;57.50;;;;;;5009904;28;25063;-71
2022/04/28 00:59:47;;;;;;;23.20;12.63;;;6.90;57.50;;;;;;5010553;28;25176;-70
2022/04/28 01:02:13;;;;;;;27.67;13.63;;;7.00;58.60;;;;;;5009065;28;25069;-70
2022/04/28 01:04:39;;;;;;;27.58;12.70;;;7.00;58.30;;;;;;5007562;28;25067;-69
2022/04/28 01:07:06;;;;;;;25.05;13.60;;;7.00;59.50;;;;;;5007500;28;25069;-69
2022/04/28 01:09:37;;;;;;;25.25;13.77;;;6.90;59.70;;;;;;5007708;28;25076;-72
2022/04/28 01:12:14;;;;;;;25.27;12.98;;;6.90;60.70;;;;;;5007177;28;25099;-67
2022/04/28 01:14:44;;;;;;;24.38;13.65;;;6.90;61.90;;;;;;5007575;28;25046;-69
2022/04/28 01:17:10;;;;;;;28.08;13.77;;;6.80;63.30;;;;;;5007937;28;25060;-69
2022/04/28 01:19:36;;;;;;;22.98;12.43;;;6.80;65.40;;;;;;5008288;28;25080;-69
2022/04/28 01:22:04;;;;;;;24.42;13.70;;;6.80;67.00;;;;;;5016217;28;25152;-70
2022/04/28 01:25:00;;;;;;;25.73;13.60;;;6.80;67.00;;;;;;5025645;28;25074;-68
2022/04/28 01:27:26;;;;;;;23.88;13.35;;;6.70;66.90;;;;;;5028151;28;25057;-70
2022/04/28 01:29:51;;;;;;;23.92;13.18;;;6.70;67.80;;;;;;5020101;28;25063;-69
2022/04/28 01:32:17;;;;;;;27.05;12.98;;;6.70;68.50;;;;;;5019352;28;25072;-69
2022/04/28 01:34:42;;;;;;;25.08;13.88;;;6.70;69.60;;;;;;5009016;28;25120;-69
2022/04/28 01:37:08;;;;;;;23.05;12.38;;;6.70;69.20;;;;;;5006740;28;25071;-71
2022/04/28 01:39:33;;;;;;;24.90;12.25;;;6.70;68.00;;;;;;5006836;28;25107;-69
2022/04/28 01:41:59;;;;;;;20.55;12.23;;;6.70;67.80;;;;;;5009002;28;25074;-69
2022/04/28 01:44:25;;;;;;;22.77;11.77;;;6.80;67.10;;;;;;5002685;28;25104;-69
2022/04/28 01:46:50;;;;;;;30.13;13.77;;;6.70;67.60;;;;;;5008038;28;25101;-69
2022/04/28 01:49:16;;;;;;;21.98;12.63;;;6.70;67.50;;;;;;5029550;28;25109;-72
2022/04/28 01:57:09;;;;;;;20.15;10.68;;;6.70;68.90;;;;;;5009371;28;25091;-70
2022/04/28 01:59:35;;;;;;;17.40;10.77;;;6.80;67.90;;;;;;5009496;28;25113;-68
2022/04/28 02:02:00;;;;;;;23.98;11.40;;;6.90;66.50;;;;;;5008963;28;25078;-69
2022/04/28 02:04:26;;;;;;;20.58;11.90;;;6.80;62.30;;;;;;5012465;28;25070;-70
2022/04/28 02:06:51;;;;;;;26.98;12.43;;;6.70;64.90;;;;;;5011482;28;25078;-68
2022/04/28 02:09:17;;;;;;;23.98;11.73;;;6.70;65.60;;;;;;5007039;28;25140;-68
2022/04/28 02:11:42;;;;;;;28.75;12.18;;;6.70;64.80;;;;;;5005711;28;25089;-70
2022/04/28 02:14:08;;;;;;;23.92;12.00;;;6.70;64.80;;;;;;5005839;28;25152;-68
2022/04/28 02:16:33;;;;;;;20.73;12.75;;;6.60;67.50;;;;;;5010693;28;25142;-70
2022/04/28 02:18:59;;;;;;;23.40;11.65;;;6.60;68.30;;;;;;5010283;28;25088;-70
2022/04/28 02:21:25;;;;;;;25.83;12.55;;;6.60;68.20;;;;;;5009483;28;25074;-69
2022/04/28 02:23:50;;;;;;;22.77;12.43;;;6.60;68.10;;;;;;5007174;28;25076;-70
2022/04/28 02:26:16;;;;;;;27.67;13.27;;;6.50;69.30;;;;;;5010246;28;25081;-70
2022/04/28 02:28:41;;;;;;;26.50;13.80;;;6.50;71.20;;;;;;5013411;28;25082;-73
2022/04/28 02:31:07;;;;;;;22.33;12.20;;;6.50;71.50;;;;;;5028501;28;25076;-74
2022/04/28 02:33:32;;;;;;;24.02;12.18;;;6.50;73.10;;;;;;5031037;28;25080;-73
2022/04/28 02:35:58;;;;;;;22.83;12.27;;;6.50;74.70;;;;;;5028725;28;25097;-68
2022/04/28 02:38:23;;;;;;;23.45;13.55;;;6.50;76.30;;;;;;5016525;28;25142;-72
2022/04/28 02:40:49;;;;;;;30.35;12.18;;;6.50;74.00;;;;;;5008429;28;25100;-68
2022/04/28 02:43:14;;;;;;;27.48;13.98;;;6.50;73.30;;;;;;5008897;28;25054;-70
2022/04/28 02:45:40;;;;;;;17.38;12.05;;;6.50;73.70;;;;;;5006701;28;25056;-71
2022/04/28 02:48:06;;;;;;;25.25;11.63;;;6.50;74.50;;;;;;5008678;28;25141;-69
2022/04/28 02:50:31;;;;;;;17.05;11.95;;;6.50;73.90;;;;;;5006997;28;25137;-69
2022/04/28 02:52:57;;;;;;;24.45;12.32;;;6.40;74.90;;;;;;5004990;28;25074;-68
2022/04/28 02:55:23;;;;;;;21.02;12.55;;;6.40;76.00;;;;;;5008136;28;25090;-69
2022/04/28 02:57:48;;;;;;;25.33;13.27;;;6.40;76.10;;;;;;5010791;28;25080;-70
2022/04/28 03:00:14;;;;;;;24.00;14.38;;;6.50;76.50;;;;;;5009827;28;25059;-70
2022/04/28 03:02:40;;;;;;;29.02;13.07;;;6.50;75.20;;;;;;5010066;28;25069;-70
2022/04/28 03:05:06;;;;;;;23.77;13.25;;;6.40;75.10;;;;;;5011066;28;25074;-72
2022/04/28 03:13:11;;;;;;;22.63;12.68;;;6.30;77.40;;;;;;5010289;28;25141;-68
2022/04/28 03:15:39;;;;;;;25.73;12.93;;;6.20;77.00;;;;;;5007070;28;25064;-70
2022/04/28 03:18:05;;;;;;;19.35;12.40;;;6.20;77.60;;;;;;5010107;28;25134;-70
2022/04/28 03:20:30;;;;;;;18.40;12.55;;;6.20;78.50;;;;;;5009448;28;25057;-69
2022/04/28 03:22:56;;;;;;;22.65;12.43;;;6.20;77.90;;;;;;5010105;28;25160;-69
2022/04/28 03:25:22;;;;;;;27.58;12.93;;;6.20;78.50;;;;;;5010544;28;25055;-69
2022/04/28 03:27:47;;;;;;;26.15;13.18;;;6.20;79.30;;;;;;5008295;28;25158;-70
2022/04/28 03:30:13;;;;;;;23.10;13.35;;;6.10;79.80;;;;;;5013722;28;25061;-69
2022/04/28 03:32:38;;;;;;;24.75;13.25;;;6.10;80.30;;;;;;5018733;28;25163;-70
2022/04/28 03:35:04;;;;;;;26.30;12.50;;;6.20;80.20;;;;;;5016613;28;25114;-70
2022/04/28 03:37:30;;;;;;;23.15;12.30;;;6.20;80.40;;;;;;5021833;28;25066;-67
2022/04/28 03:39:55;;;;;;;22.75;11.85;;;6.20;80.30;;;;;;5036933;28;25084;-72
2022/04/28 03:42:21;;;;;;;23.08;11.55;;;6.30;77.80;;;;;;5031166;28;25068;-68
2022/04/28 03:44:46;;;;;;;24.65;12.60;;;6.30;77.40;;;;;;5033792;28;25050;-74
2022/04/28 03:47:12;;;;;;;20.90;11.73;;;6.30;75.30;;;;;;5032990;28;25102;-71
2022/04/28 03:49:37;;;;;;;22.17;11.70;;;6.30;74.80;;;;;;5017625;28;25104;-68
2022/04/28 03:52:04;;;;;;;22.88;12.77;;;6.30;73.10;;;;;;5007041;28;25077;-67
2022/04/28 03:54:29;;;;;;;25.65;11.73;;;6.30;73.10;;;;;;5010073;28;25068;-68
2022/04/28 03:56:55;;;;;;;18.75;11.82;;;6.30;73.30;;;;;;5011545;28;25067;-68
2022/04/28 03:59:20;;;;;;;26.10;12.23;;;6.30;70.30;;;;;;5010991;28;25082;-68
2022/04/28 04:01:46;;;;;;;22.70;12.25;;;6.30;70.80;;;;;;5031259;28;25090;-71
2022/04/28 04:04:12;;;;;;;18.83;12.68;;;6.20;71.30;;;;;;5020528;28;25074;-70
2022/04/28 04:06:37;;;;;;;24.90;12.35;;;6.20;71.00;;;;;;5007849;28;25065;-70
2022/04/28 04:09:03;;;;;;;22.42;12.93;;;6.10;71.60;;;;;;5009116;28;25063;-70
2022/04/28 04:11:28;;;;;;;27.08;12.07;;;6.20;72.30;;;;;;5007647;28;25133;-71
2022/04/28 04:13:54;;;;;;;29.27;12.70;;;6.10;72.30;;;;;;5007491;28;25142;-68
2022/04/28 04:16:19;;;;;;;22.35;12.05;;;6.10;73.50;;;;;;5008005;28;25153;-71
2022/04/28 04:18:45;;;;;;;26.05;13.05;;;6.10;74.30;;;;;;5005729;28;25083;-68
2022/04/28 04:21:10;;;;;;;26.80;12.73;;;6.10;74.80;;;;;;5005599;28;25072;-69
2022/04/28 04:23:36;;;;;;;25.73;11.75;;;6.10;74.00;;;;;;4989837;28;25130;-69
2022/04/28 04:26:01;;;;;;;21.73;12.05;;;6.00;74.00;;;;;;5006906;28;25064;-68
2022/04/28 04:28:27;;;;;;;28.73;12.85;;;6.10;74.00;;;;;;5007158;28;25099;-70
2022/04/28 04:33:37;;;;;;;22.85;12.98;;;6.10;73.50;;;;;;5007063;28;25149;-71
2022/04/28 04:36:04;;;;;;;24.08;11.98;;;6.00;72.50;;;;;;5004284;28;25170;-70
2022/04/28 04:38:30;;;;;;;24.42;12.02;;;6.10;72.80;;;;;;5004526;28;25113;-70
2022/04/28 04:40:55;;;;;;;26.88;12.10;;;6.10;71.90;;;;;;4986890;28;25100;-70
2022/04/28 04:43:21;;;;;;;24.00;11.35;;;6.10;70.50;;;;;;5006218;28;25048;-69
2022/04/28 04:45:47;;;;;;;31.60;12.02;;;6.10;70.60;;;;;;5008084;28;25047;-68
2022/04/28 04:48:13;;;;;;;25.15;11.90;;;6.10;68.00;;;;;;5006969;28;25054;-69
2022/04/28 04:50:39;;;;;;;19.83;11.10;;;6.10;68.50;;;;;;5004606;28;25123;-70
2022/04/28 04:53:06;;;;;;;23.25;12.20;;;6.10;67.10;;;;;;5005360;28;25070;-70
2022/04/28 04:55:33;;;;;;;25.98;11.57;;;6.10;66.80;;;;;;5002984;28;25063;-69
2022/04/28 04:57:59;;;;;;;28.98;12.50;;;6.20;66.60;;;;;;5004164;28;25125;-71
2022/04/28 05:00:25;;;;;;;21.90;11.82;;;6.10;65.10;;;;;;5004980;28;25081;-70
2022/04/28 05:02:50;;;;;;;27.17;11.60;;;6.10;65.60;;;;;;5003945;28;25074;-71
2022/04/28 05:05:16;;;;;;;22.73;11.88;;;6.20;66.00;;;;;;5007384;28;25075;-69
2022/04/28 05:07:42;;;;;;;25.58;12.50;;;6.20;65.00;;;;;;5007162;28;25073;-70
2022/04/28 05:10:09;;;;;;;27.45;11.90;;;6.30;64.80;;;;;;5008014;28;25094;-69
2022/04/28 05:12:35;;;;;;;22.67;12.13;;;6.30;63.70;;;;;;5004315;28;25089;-68
2022/04/28 05:15:01;;;;;;;23.10;11.90;;;6.40;62.50;;;;;;5005132;28;25070;-70
2022/04/28 05:17:26;;;;;;;21.20;11.43;;;6.40;60.80;;;;;;5002861;28;25059;-71
2022/04/28 05:19:52;;;;;;;27.80;11.40;;;6.30;58.50;;;;;;5004543;28;25097;-70
2022/04/28 05:22:17;;;;;;;22.25;11.38;;;6.30;59.60;;;;;;5004399;28;25069;-70
2022/04/28 05:24:43;;;;;;;24.02;11.63;;;6.30;57.10;;;;;;5004052;28;25059;-69
2022/04/28 05:27:08;;;;;;;23.70;11.63;;;6.30;58.20;;;;;;5003707;28;25168;-69
2022/04/28 05:29:34;;;;;;;24.90;11.20;;;6.30;57.60;;;;;;5003116;28;25099;-70
2022/04/28 05:31:59;;;;;;;24.80;11.48;;;6.40;55.80;;;;;;5005035;28;25127;-68
2022/04/28 05:34:25;;;;;;;21.05;11.20;;;6.40;55.70;;;;;;5005941;28;25114;-69
2022/04/28 05:36:51;;;;;;;21.05;11.68;;;6.50;55.30;;;;;;5006052;28;25061;-71
2022/04/28 05:39:17;;;;;;;22.00;11.25;;;6.50;53.70;;;;;;5006980;28;25075;-70
2022/04/28 05:41:43;;;;;;;24.63;11.98;;;6.60;51.80;;;;;;5005644;28;25114;-69
2022/04/28 05:46:53;;;;;;;24.65;11.57;;;6.60;48.20;;;;;;5008440;28;25144;-69
2022/04/28 05:49:20;;;;;;;25.13;12.05;;;6.70;45.40;;;;;;5008270;28;25081;-72
2022/04/28 05:51:48;;;;;;;25.27;11.88;;;6.70;45.70;;;;;;5007532;28;25077;-70
2022/04/28 05:54:15;;;;;;;23.88;11.05;;;6.80;45.10;;;;;;5006857;28;25087;-68
2022/04/28 05:56:42;;;;;;;22.58;10.45;;;6.90;44.60;;;;;;5007049;28;25109;-70
2022/04/28 05:59:09;;;;;;;24.85;9.95;;;6.90;42.80;;;;;;5005897;28;25064;-72
2022/04/28 06:01:35;;;;;;;23.63;10.88;;;7.00;41.80;;;;;;5006798;28;25052;-71
2022/04/28 06:04:00;;;;;;;21.40;11.02;;;7.00;39.20;;;;;;5008187;28;25075;-69
2022/04/28 06:06:26;;;;;;;20.35;9.88;;;7.10;39.00;;;;;;5008469;28;25068;-71
2022/04/28 06:08:51;;;;;;;22.48;10.85;;;7.20;37.40;;;;;;5010331;28;25062;-71
2022/04/28 06:11:17;;;;;;;19.38;10.27;;;7.20;36.00;;;;;;5025997;28;25111;-72
2022/04/28 06:13:43;;;;;;;18.63;9.43;;;7.20;34.50;;;;;;5026683;28;25082;-69
2022/04/28 06:16:09;;;;;;;24.25;9.93;;;7.30;33.20;;;;;;5010439;28;25076;-72
2022/04/28 06:18:34;;;;;;;26.08;9.75;;;7.40;32.30;;;;;;5007630;28;25069;-69
2022/04/28 06:21:00;;;;;;;20.42;10.18;;;7.30;31.10;;;;;;5006268;28;25072;-69
2022/04/28 06:23:25;;;;;;;25.60;10.95;;;7.30;31.10;;;;;;5005803;28;25079;-70
2022/04/28 06:25:51;;;;;;;18.30;9.65;;;7.40;30.60;;;;;;5006283;28;25084;-71
2022/04/28 06:28:17;;;;;;;19.75;9.30;;;7.50;29.70;;;;;;5006545;28;25064;-68
2022/04/28 06:30:43;;;;;;;21.48;9.95;;;7.80;29.20;;;;;;5006033;28;25156;-70
2022/04/28 06:33:08;;;;;;;23.77;9.57;;;7.80;27.40;;;;;;5006116;28;25157;-70
2022/04/28 06:35:34;;;;;;;22.77;10.38;;;7.70;25.50;;;;;;5006109;28;25048;-70
2022/04/28 06:38:01;;;;;;;26.73;10.40;;;7.80;26.40;;;;;;5005837;28;25076;-69
2022/04/28 06:40:26;;;;;;;22.85;9.23;;;7.90;26.20;;;;;;5005727;28;25159;-69
2022/04/28 06:42:52;;;;;;;19.65;8.70;;;8.00;25.90;;;;;;5021525;28;25081;-68
2022/04/28 06:45:18;;;;;;;21.42;9.55;;;8.20;24.80;;;;;;5022403;28;25416;-67
2022/04/28 06:47:43;;;;;;;19.73;9.65;;;8.20;24.20;;;;;;5007516;28;25071;-70
2022/04/28 06:50:09;;;;;;;21.50;9.75;;;8.30;22.90;;;;;;5007223;28;25077;-69
2022/04/28 06:52:39;;;;;;;21.67;9.27;;;8.20;22.80;;;;;;5014439;28;25053;-73
2022/04/28 06:55:06;;;;;;;16.23;9.00;;;8.20;23.00;;;;;;5032570;28;25009;-70
2022/04/28 06:57:31;;;;;;;21.33;10.50;;;8.30;23.10;;;;;;5029032;28;25064;-68
2022/04/28 06:59:57;;;;;;;19.73;9.43;;;8.30;22.50;;;;;;5016019;28;25150;-68
2022/04/28 07:02:22;;;;;;;28.58;9.98;;;8.40;22.70;;;;;;5011152;28;25055;-68
2022/04/28 07:04:48;;;;;;;18.33;8.98;;;8.50;22.80;;;;;;5010388;28;25081;-70
2022/04/28 07:07:14;;;;;;;18.02;8.20;;;8.70;20.20;;;;;;5012365;28;25074;-68
2022/04/28 07:09:40;;;;;;;20.08;8.27;;;8.70;19.20;;;;;;5025651;28;25069;-69
2022/04/28 07:12:06;;;;;;;13.48;8.57;;;8.70;18.60;;;;;;5028035;28;25073;-69
2022/04/28 07:14:33;;;;;;;17.08;7.93;;;9.00;19.40;;;;;;5031558;28;25162;-70
2022/04/28 07:16:59;;;;;;;15.88;8.40;;;9.10;17.00;;;;;;5031188;28;25060;-70
2022/04/28 07:19:25;;;;;;;19.17;8.57;;;9.20;16.80;;;;;;5033649;28;25090;-69
2022/04/28 07:21:50;;;;;;;19.98;7.32;;;9.30;16.20;;;;;;5025278;28;25453;-69
2022/04/28 07:24:16;;;;;;;22.73;8.73;;;9.40;16.00;;;;;;5029455;28;25063;-70
2022/04/28 07:26:41;;;;;;;18.02;7.45;;;9.50;14.70;;;;;;5034149;28;25077;-69
2022/04/28 07:29:08;;;;;;;15.77;8.02;;;9.50;13.30;;;;;;5035985;28;25089;-73
2022/04/28 07:31:34;;;;;;;16.13;7.03;;;9.70;10.70;;;;;;5031387;28;25100;-73
2022/04/28 07:33:59;;;;;;;12.77;7.45;;;9.80;11.90;;;;;;5032245;28;25084;-71
2022/04/28 07:36:25;;;;;;;22.52;7.65;;;9.90;10.10;;;;;;5031837;28;25072;-71
2022/04/28 07:38:51;;;;;;;13.43;6.30;;;10.00;11.10;;;;;;5031479;28;25072;-70
2022/04/28 07:41:16;;;;;;;12.90;6.43;;;9.90;8.10;;;;;;5046521;28;25079;-72
2022/04/28 07:43:42;;;;;;;14.95;6.43;;;10.00;8.80;;;;;;5033014;28;25074;-71
2022/04/28 07:46:08;;;;;;;17.08;6.97;;;10.00;6.80;;;;;;5030060;28;25064;-69
2022/04/28 07:48:33;;;;;;;16.40;6.88;;;10.10;7.40;;;;;;5028193;28;25078;-73
2022/04/28 07:50:59;;;;;;;16.35;6.50;;;10.10;6.90;;;;;;5027005;28;25071;-71
2022/04/28 07:53:24;;;;;;;16.98;6.38;;;10.30;6.00;;;;;;5023264;28;25078;-68
2022/04/28 07:58:34;;;;;;;14.05;5.47;;;10.70;5.20;;;;;;5018562;28;25112;-72
2022/04/28 08:01:00;;;;;;;16.17;5.70;;;10.70;3.20;;;;;;5015350;28;25087;-67
2022/04/28 08:03:26;;;;;;;15.52;5.50;;;10.80;4.00;;;;;;5011660;28;25147;-71
2022/04/28 08:05:53;;;;;;;13.18;6.03;;;10.80;2.10;;;;;;5017585;28;25141;-71
2022/04/28 08:08:19;;;;;;;14.38;5.32;;;10.80;1.70;;;;;;5014361;28;25136;-69
2022/04/28 08:10:44;;;;;;;16.95;6.90;;;10.70;4.40;;;;;;5008984;28;25124;-70
2022/04/28 08:13:10;;;;;;;20.15;7.35;;;10.80;2.20;;;;;;5012488;28;25073;-68
2022/04/28 08:15:36;;;;;;;18.77;5.82;;;10.80;3.50;;;;;;5009689;28;25064;-71
2022/04/28 08:18:01;;;;;;;10.13;4.85;;;11.20;4.60;;;;;;5013160;28;25110;-70
2022/04/28 08:20:27;;;;;;;14.23;4.90;;;11.30;1.00;;;;;;5009937;28;25067;-67
2022/04/28 08:22:52;;;;;;;13.15;4.65;;;11.20;1.00;;;;;;5009982;28;25085;-73
2022/04/28 08:25:18;;;;;;;12.68;5.63;;;11.00;1.00;;;;;;5008633;28;25053;-68
2022/04/28 08:27:43;;;;;;;17.90;5.88;;;10.90;1.00;;;;;;5009520;28;25045;-70
2022/04/28 08:30:10;;;;;;;15.38;6.43;;;11.10;1.00;;;;;;5009807;28;25086;-72
2022/04/28 08:32:36;;;;;;;18.88;7.03;;;11.10;1.00;;;;;;5008749;28;25082;-70
2022/04/28 08:35:02;;;;;;;16.02;5.07;;;11.40;1.00;;;;;;5008812;28;25105;-70
2022/04/28 08:37:27;;;;;;;15.18;5.15;;;11.80;1.00;;;;;;5006855;28;25124;-70
2022/04/28 08:39:53;;;;;;;15.85;5.85;;;11.80;1.00;;;;;;5008143;28;25120;-70
2022/04/28 08:42:21;;;;;;;13.45;5.43;;;11.50;1.00;;;;;;5007565;28;25063;-71
2022/04/28 08:44:47;;;;;;;12.13;5.40;;;11.70;1.00;;;;;;5008082;28;25062;-72
2022/04/28 08:47:13;;;;;;;13.85;5.18;;;11.80;1.00;;;;;;5008446;28;25050;-71
2022/04/28 08:49:42;;;;;;;14.85;5.55;;;12.00;1.00;;;;;;5008539;28;25054;-70
2022/04/28 08:52:08;;;;;;;17.42;5.03;;;12.10;1.00;;;;;;5008357;28;25077;-70
2022/04/28 08:54:38;;;;;;;15.02;5.65;;;12.20;1.00;;;;;;5007722;28;25144;-70
2022/04/28 08:57:04;;;;;;;16.77;5.28;;;11.90;1.00;;;;;;5008415;28;25085;-69
2022/04/28 08:59:29;;;;;;;16.05;5.47;;;12.00;1.00;;;;;;5008179;28;25129;-70
2022/04/28 09:01:55;;;;;;;14.20;4.90;;;12.10;1.00;;;;;;5008725;28;25100;-67
2022/04/28 09:04:22;;;;;;;13.20;4.95;;;12.10;1.00;;;;;;5008526;28;25148;-69
2022/04/28 09:06:54;;;;;;;18.08;6.07;;;12.40;1.00;;;;;;5007784;28;25061;-68
2022/04/28 09:09:20;;;;;;;12.75;5.60;;;12.50;1.00;;;;;;5007768;28;25072;-73
2022/04/28 09:11:47;;;;;;;11.35;4.68;;;12.30;1.00;;;;;;5007822;28;25107;-71
2022/04/28 09:14:20;;;;;;;17.42;5.05;;;12.60;1.00;;;;;;5008142;28;25058;-67
2022/04/28 09:16:45;;;;;;;12.35;5.15;;;12.60;1.00;;;;;;5007924;28;25060;-69
2022/04/28 09:19:25;;;;;;;13.77;5.30;;;12.80;1.00;;;;;;5009474;28;25062;-70
2022/04/28 09:21:53;;;;;;;15.80;5.85;;;13.00;1.00;;;;;;5008938;28;25100;-69
2022/04/28 09:24:20;;;;;;;17.08;6.22;;;13.10;1.00;;;;;;5010055;28;25076;-68
2022/04/28 09:26:48;;;;;;;13.32;5.68;;;12.90;1.00;;;;;;5012440;28;25059;-69
2022/04/28 09:29:15;;;;;;;14.07;5.70;;;12.70;1.00;;;;;;5012221;28;25057;-67
2022/04/28 09:31:43;;;;;;;13.25;5.45;;;12.90;1.00;;;;;;5012681;28;25051;-67
2022/04/28 09:34:14;;;;;;;9.85;4.85;;;13.30;1.00;;;;;;5017680;28;25082;-69
2022/04/28 09:36:42;;;;;;;14.60;5.43;;;13.60;1.00;;;;;;5026936;28;25067;-70
2022/04/28 09:39:12;;;;;;;16.77;5.32;;;13.30;1.00;;;;;;5025592;28;25109;-70
2022/04/28 09:44:23;;;;;;;12.68;5.30;;;12.70;1.00;;;;;;5006583;28;25058;-69
2022/04/28 09:46:50;;;;;;;9.50;5.18;;;12.90;1.00;;;;;;5005802;28;25065;-71
2022/04/28 09:49:18;;;;;;;13.50;5.57;;;13.40;1.00;;;;;;5007036;28;25060;-69
2022/04/28 09:51:44;;;;;;;12.10;5.55;;;13.20;1.00;;;;;;5008165;28;25126;-69
2022/04/28 09:54:13;;;;;;;10.77;6.00;;;13.00;1.00;;;;;;5008306;28;25092;-70
2022/04/28 09:56:41;;;;;;;13.18;5.25;;;13.10;1.00;;;;;;5007260;28;25094;-67
2022/04/28 09:59:09;;;;;;;13.55;6.03;;;12.90;1.00;;;;;;5007168;28;25156;-71
2022/04/28 10:01:37;;;;;;;16.23;6.40;;;12.90;1.00;;;;;;5007466;28;25180;-72
2022/04/28 10:04:03;;;;;;;17.95;6.22;;;13.00;1.00;;;;;;5007583;28;25079;-69
2022/04/28 10:06:31;;;;;;;16.75;5.95;;;12.90;1.00;;;;;;5007233;28;25070;-69
2022/04/28 10:08:59;;;;;;;15.65;6.00;;;13.30;1.00;;;;;;5006064;28;25134;-70
2022/04/28 10:11:26;;;;;;;14.80;6.35;;;13.50;1.00;;;;;;5006166;28;25060;-67
2022/04/28 10:13:52;;;;;;;14.02;6.95;;;13.50;1.00;;;;;;5006749;28;25070;-67
2022/04/28 10:16:19;;;;;;;13.90;6.60;;;13.70;1.00;;;;;;5006347;28;25059;-67
2022/04/28 10:18:53;;;;;;;14.90;6.88;;;13.90;1.00;;;;;;5005724;28;25096;-68
2022/04/28 10:21:23;;;;;;;12.23;6.38;;;14.00;1.00;;;;;;5004810;28;25069;-68
2022/04/28 10:32:54;;;;;;;13.95;6.80;;;14.40;1.00;;;;;;5007249;28;25077;-69
2022/04/28 10:35:36;;;;;;;19.17;8.20;;;14.40;1.00;;;;;;5008401;28;25081;-67
2022/04/28 10:38:12;;;;;;;15.13;6.25;;;14.10;1.00;;;;;;5009898;28;25054;-68
2022/04/28 10:40:40;;;;;;;18.90;6.95;;;14.30;1.00;;;;;;5023608;28;25065;-69
2022/04/28 10:43:19;;;;;;;14.88;7.00;;;14.30;1.00;;;;;;5034466;28;25072;-71
2022/04/28 10:45:46;;;;;;;13.55;6.55;;;14.50;1.00;;;;;;5035209;28;25044;-72
2022/04/28 10:48:21;;;;;;;13.15;6.72;;;14.40;1.00;;;;;;5037088;28;25043;-74
2022/04/28 10:51:18;;;;;;;13.43;7.10;;;14.10;1.00;;;;;;5033715;28;25060;-72
2022/04/28 10:53:56;;;;;;;15.65;7.05;;;14.20;1.00;;;;;;5027936;28;25057;-67
2022/04/28 10:56:22;;;;;;;14.35;6.57;;;14.60;1.00;;;;;;5024043;28;25114;-70
2022/04/28 10:58:48;;;;;;;16.95;7.68;;;14.60;1.00;;;;;;5026855;28;25097;-70
2022/04/28 11:01:27;;;;;;;12.18;6.47;;;14.40;1.00;;;;;;5019154;28;25059;-69
2022/04/28 11:04:08;;;;;;;14.02;6.57;;;14.60;1.00;;;;;;5012459;28;25072;-69
2022/04/28 11:06:37;;;;;;;13.65;7.32;;;15.00;1.00;;;;;;5010585;28;25116;-70
2022/04/28 11:09:05;;;;;;;14.23;6.63;;;14.40;1.00;;;;;;5011332;28;25049;-71
2022/04/28 11:11:47;;;;;;;13.43;6.65;;;14.70;1.00;;;;;;5010223;28;25093;-67
2022/04/28 11:14:14;;;;;;;13.27;8.00;;;15.30;1.00;;;;;;5009704;28;25071;-71
2022/04/28 11:16:41;;;;;;;23.73;8.82;;;15.30;1.00;;;;;;5010724;28;25104;-68
2022/04/28 11:19:08;;;;;;;13.35;6.93;;;14.70;1.00;;;;;;5011687;28;25085;-69
2022/04/28 11:21:38;;;;;;;12.98;6.50;;;14.90;1.00;;;;;;5011431;28;25113;-69
2022/04/28 11:24:04;;;;;;;13.73;6.30;;;14.80;1.00;;;;;;5009661;28;25053;-67
2022/04/28 11:26:30;;;;;;;10.55;6.05;;;14.80;1.00;;;;;;5014892;28;25054;-68
2022/04/28 11:28:55;;;;;;;13.60;5.60;;;14.70;1.00;;;;;;5014575;28;25057;-69
2022/04/28 11:31:21;;;;;;;12.63;6.63;;;15.20;1.00;;;;;;5015825;28;25109;-70
2022/04/28 11:33:49;;;;;;;12.18;6.18;;;15.30;1.00;;;;;;5015471;28;25073;-68
2022/04/28 11:36:16;;;;;;;13.25;5.88;;;15.30;1.00;;;;;;5015322;28;25090;-70
2022/04/28 11:38:52;;;;;;;11.85;6.18;;;15.30;1.00;;;;;;5015368;28;25067;-67
2022/04/28 11:41:23;;;;;;;13.90;6.63;;;14.70;1.00;;;;;;5015627;28;25089;-68
2022/04/28 11:43:50;;;;;;;12.40;6.32;;;15.20;1.00;;;;;;5015775;28;25068;-67
2022/04/28 11:46:16;;;;;;;12.82;5.95;;;15.40;1.00;;;;;;5016081;28;25109;-71
2022/04/28 11:48:42;;;;;;;14.63;7.47;;;15.80;1.00;;;;;;5014990;28;25106;-68
2022/04/28 11:51:08;;;;;;;14.45;6.93;;;14.80;1.00;;;;;;5016607;28;25093;-69
2022/04/28 11:53:44;;;;;;;11.13;5.78;;;15.50;1.00;;;;;;5014740;28;25117;-69
2022/04/28 11:56:25;;;;;;;12.27;6.10;;;15.80;1.00;;;;;;5015221;28;25076;-71
2022/04/28 11:58:53;;;;;;;13.97;6.50;;;15.70;1.00;;;;;;5013389;28;25104;-73
2022/04/28 12:01:20;;;;;;;17.13;6.70;;;15.20;1.00;;;;;;5012403;28;25155;-70
2022/04/28 12:03:53;;;;;;;15.00;7.22;;;15.30;1.00;;;;;;5015181;28;25100;-69
2022/04/28 12:06:19;;;;;;;17.63;7.22;;;15.50;1.00;;;;;;5010805;28;25079;-68
2022/04/28 12:08:49;;;;;;;10.38;5.78;;;15.40;1.00;;;;;;5009175;28;25067;-71
2022/04/28 12:19:28;;;;;;;12.52;7.28;;;15.50;1.00;;;;;;5009076;28;25054;-69
2022/04/28 12:22:01;;;;;;;12.90;6.40;;;15.90;1.00;;;;;;5008612;28;25061;-71
2022/04/28 12:24:32;;;;;;;15.73;6.72;;;16.20;1.00;;;;;;5008345;28;25074;-68
2022/04/28 12:27:11;;;;;;;16.33;7.60;;;16.20;1.00;;;;;;5008859;28;25086;-69
2022/04/28 12:29:54;;;;;;;14.77;6.90;;;15.80;1.00;;;;;;5008491;28;25051;-71
2022/04/28 12:32:21;;;;;;;16.88;7.60;;;15.50;1.00;;;;;;5007765;28;25067;-68
2022/04/28 12:34:57;;;;;;;18.42;7.88;;;15.50;1.00;;;;;;5007849;28;25157;-67
2022/04/28 12:37:26;;;;;;;14.43;7.28;;;15.70;1.00;;;;;;5007641;28;25079;-68
2022/04/28 12:39:57;;;;;;;16.42;7.25;;;15.80;1.00;;;;;;5007071;28;25065;-68
2022/04/28 12:42:25;;;;;;;16.80;7.80;;;16.00;1.00;;;;;;5007283;28;25067;-69
2022/04/28 12:44:51;;;;;;;13.30;7.75;;;16.10;1.00;;;;;;5006436;28;25052;-67
2022/04/28 12:47:17;;;;;;;15.93;8.77;;;16.30;1.00;;;;;;5007853;28;25056;-68
2022/04/28 12:49:48;;;;;;;17.17;7.15;;;15.60;1.00;;;;;;5007751;28;25070;-67
2022/04/28 12:52:30;;;;;;;11.52;6.78;;;16.00;1.00;;;;;;5006535;28;25098;-70
2022/04/28 12:55:06;;;;;;;12.23;7.65;;;16.50;1.00;;;;;;5005096;28;25074;-70
2022/04/28 12:57:32;;;;;;;20.13;7.93;;;15.90;1.00;;;;;;5006815;28;25072;-70
2022/04/28 13:00:06;;;;;;;15.02;7.68;;;15.80;1.00;;;;;;5007908;28;25087;-67
2022/04/28 13:02:32;;;;;;;15.80;7.32;;;16.10;1.00;;;;;;5007094;28;25058;-68
2022/04/28 13:05:15;;;;;;;11.52;7.88;;;15.70;1.00;;;;;;5007417;28;25098;-68
2022/04/28 13:07:42;;;;;;;16.17;7.93;;;15.40;1.00;;;;;;5007409;28;25136;-67
2022/04/28 13:10:09;;;;;;;16.92;7.80;;;15.70;1.00;;;;;;5007705;28;25083;-69
2022/04/28 13:12:36;;;;;;;11.48;7.53;;;15.70;1.00;;;;;;5009296;28;25071;-71
2022/04/28 13:15:04;;;;;;;12.75;6.85;;;15.40;1.00;;;;;;5007789;28;25065;-69
2022/04/28 13:17:30;;;;;;;14.60;8.38;;;15.50;1.00;;;;;;5006595;28;25145;-75
2022/04/28 13:19:55;;;;;;;16.52;6.95;;;15.30;1.00;;;;;;5008106;28;25075;-70
2022/04/28 13:22:21;;;;;;;12.10;6.82;;;15.40;1.00;;;;;;5006952;28;25055;-68
2022/04/28 13:24:47;;;;;;;12.85;7.05;;;15.70;1.00;;;;;;5007898;28;25073;-68